createdAt,value
2022-11-16T00:01:02.069Z,25.90
2022-11-16T00:04:04.562Z,26.20
2022-11-16T00:07:06.635Z,26.90
2022-11-16T00:10:09.234Z,27.30
2022-11-16T00:13:11.200Z,27.20
2022-11-16T00:16:17.944Z,27.20
2022-11-16T00:19:20.048Z,27.40
2022-11-16T00:22:22.239Z,27.40
2022-11-16T00:25:24.100Z,26.60
2022-11-16T00:28:26.340Z,26.70
2022-11-16T00:31:28.216Z,26.50
2022-11-16T00:34:30.558Z,27.00
2022-11-16T00:37:32.593Z,26.70
2022-11-16T00:40:34.809Z,26.20
2022-11-16T00:43:37.100Z,27.10
2022-11-16T00:46:39.822Z,26.20
2022-11-16T00:49:41.765Z,26.60
2022-11-16T00:52:43.915Z,26.50
2022-11-16T00:55:47.291Z,26.60
2022-11-16T00:58:50.100Z,27.40
2022-11-16T01:01:52.036Z,27.70
2022-11-16T01:04:54.395Z,27.70
2022-11-16T01:07:57.183Z,27.30
2022-11-16T01:11:17.916Z,27.20
2022-11-16T01:14:19.982Z,26.60
2022-11-16T01:17:22.210Z,26.70
2022-11-16T01:20:29.126Z,27.20
2022-11-16T01:23:31.359Z,26.90
2022-11-16T01:26:33.240Z,27.20
2022-11-16T01:29:35.432Z,27.00
2022-11-16T01:32:37.692Z,27.90
2022-11-16T01:35:43.693Z,27.30
2022-11-16T01:38:47.261Z,27.40
2022-11-16T01:41:49.672Z,27.50
2022-11-16T01:44:59.773Z,27.70
2022-11-16T01:48:02.069Z,27.60
2022-11-16T01:51:04.338Z,27.20
2022-11-16T01:54:09.490Z,27.00
2022-11-16T01:57:18.202Z,27.20
2022-11-16T02:00:20.430Z,27.50
2022-11-16T02:03:22.458Z,27.70
2022-11-16T02:06:32.619Z,27.10
2022-11-16T02:10:06.748Z,27.20
2022-11-16T02:13:25.428Z,27.10
2022-11-16T02:16:58.658Z,27.10
2022-11-16T02:20:26.106Z,26.60
2022-11-16T02:23:57.433Z,26.40
2022-11-16T02:27:24.442Z,25.80
2022-11-16T02:30:26.509Z,26.00
2022-11-16T02:33:36.288Z,26.30
2022-11-16T02:36:42.096Z,25.60
2022-11-16T02:39:48.140Z,24.90
2022-11-16T02:43:03.217Z,25.40
2022-11-16T02:46:09.792Z,25.40
2022-11-16T02:49:16.974Z,25.50
2022-11-16T02:52:21.475Z,26.30
2022-11-16T02:55:25.608Z,25.80
2022-11-16T02:58:28.656Z,25.50
2022-11-16T03:01:38.891Z,25.30
2022-11-16T03:04:46.836Z,24.40
2022-11-16T03:07:53.742Z,24.40
2022-11-16T03:11:19.297Z,24.80
2022-11-16T03:14:24.629Z,25.00
2022-11-16T03:17:34.136Z,25.70
2022-11-16T03:20:38.774Z,25.70
2022-11-16T03:23:41.570Z,25.70
2022-11-16T03:26:58.565Z,25.70
2022-11-16T03:30:03.513Z,25.90
2022-11-16T03:33:24.357Z,25.80
2022-11-16T03:36:35.540Z,25.80
2022-11-16T03:39:39.221Z,24.70
2022-11-16T03:42:43.608Z,25.00
2022-11-16T03:45:46.837Z,25.10
2022-11-16T03:48:49.048Z,24.80
2022-11-16T03:51:51.283Z,24.70
2022-11-16T03:54:53.514Z,25.40
2022-11-16T03:57:55.487Z,25.10
2022-11-16T04:00:57.791Z,24.80
2022-11-16T04:03:59.734Z,25.00
2022-11-16T04:07:20.974Z,24.90
2022-11-16T04:10:41.461Z,25.30
2022-11-16T04:14:06.673Z,24.50
2022-11-16T04:17:35.264Z,24.10
2022-11-16T04:20:56.280Z,24.60
2022-11-16T04:24:13.182Z,25.10
2022-11-16T04:27:34.898Z,25.70
2022-11-16T04:30:55.412Z,26.00
2022-11-16T04:34:16.616Z,24.50
2022-11-16T04:37:37.704Z,24.10
2022-11-16T04:40:39.863Z,25.40
2022-11-16T04:43:41.756Z,25.10
2022-11-16T04:47:02.487Z,25.40
2022-11-16T04:50:05.080Z,25.20
2022-11-16T04:53:08.425Z,25.10
2022-11-16T04:56:11.412Z,24.90
2022-11-16T04:59:13.640Z,25.60
2022-11-16T05:02:15.610Z,25.40
2022-11-16T05:05:18.160Z,25.70
2022-11-16T05:08:20.133Z,25.20
2022-11-16T05:11:22.316Z,25.10
2022-11-16T05:14:24.250Z,25.50
2022-11-16T05:17:27.435Z,25.40
2022-11-16T05:20:48.193Z,26.10
2022-11-16T05:24:09.118Z,25.90
2022-11-16T05:27:14.368Z,25.30
2022-11-16T05:30:16.710Z,25.40
2022-11-16T05:33:18.665Z,26.40
2022-11-16T05:36:20.981Z,26.40
2022-11-16T05:39:23.555Z,26.40
2022-11-16T05:42:25.758Z,25.90
2022-11-16T05:45:27.899Z,26.00
2022-11-16T05:48:30.145Z,26.20
2022-11-16T05:51:32.051Z,26.20
2022-11-16T05:54:34.934Z,26.30
2022-11-16T05:57:38.373Z,25.70
2022-11-16T06:00:40.540Z,26.10
2022-11-16T06:03:42.418Z,26.10
2022-11-16T06:06:44.761Z,25.50
2022-11-16T06:09:46.676Z,25.10
2022-11-16T06:12:49.046Z,24.60
2022-11-16T06:15:50.959Z,24.80
2022-11-16T06:18:53.261Z,24.80
2022-11-16T06:21:55.209Z,25.30
2022-11-16T06:24:57.878Z,25.40
2022-11-16T06:28:04.032Z,25.40
2022-11-16T06:31:09.114Z,25.40
2022-11-16T06:34:11.074Z,25.10
2022-11-16T06:37:13.400Z,25.30
2022-11-16T06:40:15.427Z,25.10
2022-11-16T06:43:18.019Z,25.10
2022-11-16T06:46:19.967Z,25.10
2022-11-16T06:49:22.279Z,24.60
2022-11-16T06:52:24.226Z,24.80
2022-11-16T06:55:27.559Z,24.60
2022-11-16T06:58:31.720Z,25.90
2022-11-16T07:01:34.268Z,25.80
2022-11-16T07:04:36.260Z,25.30
2022-11-16T07:07:38.561Z,25.40
2022-11-16T07:10:40.597Z,26.00
2022-11-16T07:13:43.492Z,25.30
2022-11-16T07:16:45.667Z,25.30
2022-11-16T07:19:48.188Z,24.90
2022-11-16T07:22:50.263Z,25.10
2022-11-16T07:25:52.502Z,25.30
2022-11-16T07:28:54.473Z,25.20
2022-11-16T07:31:56.645Z,25.20
2022-11-16T07:34:59.634Z,25.30
2022-11-16T07:38:01.963Z,25.20
2022-11-16T07:41:12.089Z,25.30
2022-11-16T07:44:14.334Z,24.90
2022-11-16T07:47:16.298Z,24.90
2022-11-16T07:50:18.737Z,25.00
2022-11-16T07:53:20.707Z,26.40
2022-11-16T07:56:23.309Z,26.20
2022-11-16T07:59:25.275Z,26.20
2022-11-16T08:02:27.501Z,25.70
2022-11-16T08:05:29.443Z,25.00
2022-11-16T08:08:32.149Z,25.90
2022-11-16T08:11:34.487Z,25.60
2022-11-16T08:14:36.927Z,25.10
2022-11-16T08:17:39.165Z,25.60
2022-11-16T08:20:41.341Z,25.80
2022-11-16T08:23:44.966Z,26.00
2022-11-16T08:26:47.214Z,26.00
2022-11-16T08:29:49.097Z,25.50
2022-11-16T08:32:51.282Z,25.70
2022-11-16T08:35:54.228Z,25.70
2022-11-16T08:38:56.502Z,26.30
2022-11-16T08:41:58.654Z,25.50
2022-11-16T08:45:00.849Z,24.90
2022-11-16T08:48:04.454Z,24.40
2022-11-16T08:51:20.198Z,25.00
2022-11-16T08:54:22.829Z,25.60
2022-11-16T08:57:25.000Z,25.10
2022-11-16T09:00:26.961Z,24.80
2022-11-16T09:03:29.202Z,25.50
2022-11-16T09:06:31.458Z,25.70
2022-11-16T09:09:33.595Z,26.40
2022-11-16T09:12:35.769Z,26.00
2022-11-16T09:15:38.059Z,25.80
2022-11-16T09:18:40.641Z,26.20
2022-11-16T09:21:44.586Z,26.10
2022-11-16T09:24:46.456Z,26.30
2022-11-16T09:27:48.714Z,26.90
2022-11-16T09:30:51.630Z,26.30
2022-11-16T09:33:55.276Z,25.40
2022-11-16T09:36:57.192Z,24.40
2022-11-16T09:39:59.389Z,24.70
2022-11-16T09:43:09.969Z,24.40
2022-11-16T09:46:21.901Z,25.40
2022-11-16T09:49:39.123Z,25.30
2022-11-16T09:52:46.376Z,24.40
2022-11-16T09:55:56.499Z,24.80
2022-11-16T09:59:23.662Z,25.40
2022-11-16T10:02:31.604Z,24.70
2022-11-16T10:06:03.816Z,25.40
2022-11-16T10:09:05.978Z,25.50
2022-11-16T10:12:21.883Z,25.90
2022-11-16T10:15:35.323Z,26.30
2022-11-16T10:18:45.820Z,26.40
2022-11-16T10:22:28.799Z,26.70
2022-11-16T10:25:59.388Z,26.80
2022-11-16T10:29:38.504Z,25.90
2022-11-16T10:32:53.656Z,26.50
2022-11-16T10:35:57.045Z,26.90
2022-11-16T10:39:00.778Z,25.80
2022-11-16T10:42:10.105Z,25.70
2022-11-16T10:45:17.756Z,25.50
2022-11-16T10:48:41.316Z,26.00
2022-11-16T10:51:43.532Z,26.10
2022-11-16T10:54:46.117Z,26.10
2022-11-16T10:58:03.238Z,25.70
2022-11-16T11:01:10.843Z,25.10
2022-11-16T11:04:18.979Z,25.20
2022-11-16T11:07:31.397Z,24.70
2022-11-16T11:10:41.725Z,25.20
2022-11-16T11:13:43.665Z,25.00
2022-11-16T11:16:45.879Z,24.90
2022-11-16T11:19:58.461Z,24.70
2022-11-16T11:23:04.433Z,25.20
2022-11-16T11:26:07.101Z,25.20
2022-11-16T11:29:32.384Z,24.80
2022-11-16T11:32:39.306Z,25.20
2022-11-16T11:35:45.959Z,24.70
2022-11-16T11:39:25.568Z,25.40
2022-11-16T11:42:28.238Z,25.70
2022-11-16T11:45:42.169Z,25.30
2022-11-16T11:48:56.565Z,25.50
2022-11-16T11:52:05.085Z,23.80
2022-11-16T11:55:08.670Z,23.60
2022-11-16T11:58:18.232Z,23.80
2022-11-16T12:01:51.432Z,24.20
2022-11-16T12:05:14.816Z,24.60
2022-11-16T12:08:41.810Z,22.80
2022-11-16T12:12:08.180Z,22.90
2022-11-16T12:15:30.064Z,22.80
2022-11-16T12:18:53.675Z,23.50
2022-11-16T12:21:58.921Z,24.20
2022-11-16T12:25:17.214Z,24.40
2022-11-16T12:28:28.991Z,24.50
2022-11-16T12:31:30.860Z,24.50
2022-11-16T12:34:47.929Z,24.20
2022-11-16T12:38:02.281Z,23.60
2022-11-16T12:41:11.844Z,23.20
2022-11-16T12:44:45.003Z,23.60
2022-11-16T12:48:09.879Z,24.70
2022-11-16T12:51:31.771Z,24.80
2022-11-16T12:55:24.134Z,24.40
2022-11-16T12:58:51.244Z,24.20
2022-11-16T13:02:29.435Z,24.70
2022-11-16T13:05:44.817Z,24.40
2022-11-16T13:08:47.623Z,23.70
2022-11-16T13:11:57.403Z,24.10
2022-11-16T13:15:02.795Z,24.80
2022-11-16T13:18:11.276Z,25.00
2022-11-16T13:21:35.710Z,24.90
2022-11-16T13:25:01.333Z,25.00
2022-11-16T13:28:33.702Z,24.70
2022-11-16T13:31:48.577Z,24.80
2022-11-16T13:34:51.756Z,24.40
2022-11-16T13:37:53.904Z,24.80
2022-11-16T13:41:29.111Z,24.50
2022-11-16T13:44:31.503Z,25.20
2022-11-16T13:47:34.994Z,24.90
2022-11-16T13:50:48.874Z,24.80
2022-11-16T13:57:31.320Z,24.60
2022-11-16T14:00:41.911Z,24.40
2022-11-16T14:03:48.817Z,24.50
2022-11-16T14:06:51.410Z,24.20
2022-11-16T14:09:53.353Z,23.60
2022-11-16T14:12:56.387Z,24.00
2022-11-16T14:16:20.013Z,23.90
2022-11-16T14:19:51.854Z,24.40
2022-11-16T14:23:05.772Z,25.10
2022-11-16T14:26:42.308Z,25.20
2022-11-16T14:30:21.277Z,24.80
2022-11-16T14:33:34.165Z,24.70
2022-11-16T14:36:42.173Z,24.30
2022-11-16T14:39:44.929Z,24.60
2022-11-16T14:43:15.891Z,25.30
2022-11-16T14:46:23.194Z,25.00
2022-11-16T14:49:26.081Z,24.30
2022-11-16T14:52:38.432Z,24.30
2022-11-16T14:55:47.704Z,24.80
2022-11-16T14:58:58.890Z,24.50
2022-11-16T15:02:12.692Z,23.70
2022-11-16T15:05:20.878Z,24.70
2022-11-16T15:08:35.197Z,24.70
2022-11-16T15:11:59.220Z,24.60
2022-11-16T15:15:16.986Z,24.50
2022-11-16T15:18:20.933Z,25.60
2022-11-16T15:21:24.404Z,25.70
2022-11-16T15:24:34.937Z,25.60
2022-11-16T15:27:43.369Z,24.50
2022-11-16T15:30:49.824Z,24.40
2022-11-16T15:33:52.346Z,25.20
2022-11-16T15:36:54.846Z,25.00
2022-11-16T15:39:58.988Z,24.50
2022-11-16T15:43:04.443Z,24.80
2022-11-16T15:46:08.122Z,24.20
2022-11-16T15:49:29.133Z,24.00
2022-11-16T15:52:55.274Z,24.20
2022-11-16T15:55:57.674Z,23.50
2022-11-16T15:59:09.804Z,23.40
2022-11-16T16:02:21.556Z,22.70
2022-11-16T16:05:40.998Z,22.10
2022-11-16T16:08:45.184Z,22.30
2022-11-16T16:11:47.627Z,21.80
2022-11-16T16:14:51.412Z,22.60
2022-11-16T16:17:54.441Z,22.80
2022-11-16T16:20:56.653Z,23.30
2022-11-16T16:23:58.662Z,22.70
2022-11-16T16:27:01.208Z,22.80
2022-11-16T16:30:06.070Z,23.10
2022-11-16T16:33:18.940Z,22.90
2022-11-16T16:36:21.111Z,23.20
2022-11-16T16:39:23.718Z,22.50
2022-11-16T16:42:25.945Z,22.20
2022-11-16T16:45:38.902Z,21.80
2022-11-16T16:48:44.691Z,22.10
2022-11-16T16:51:47.400Z,22.40
2022-11-16T16:54:49.537Z,22.20
2022-11-16T16:57:54.008Z,22.80
2022-11-16T17:01:01.109Z,23.00
2022-11-16T17:04:04.424Z,22.40
2022-11-16T17:07:06.742Z,22.20
2022-11-16T17:10:09.722Z,23.00
2022-11-16T17:13:12.226Z,22.80
2022-11-16T17:16:15.564Z,22.10
2022-11-16T17:19:18.147Z,22.10
2022-11-16T17:22:21.192Z,22.40
2022-11-16T17:25:24.691Z,23.00
2022-11-16T17:28:27.151Z,22.60
2022-11-16T17:31:29.450Z,22.10
2022-11-16T17:34:32.202Z,22.40
2022-11-16T17:37:34.351Z,23.10
2022-11-16T17:40:36.772Z,23.80
2022-11-16T17:43:39.760Z,23.60
2022-11-16T17:46:42.239Z,22.20
2022-11-16T17:49:44.371Z,22.00
2022-11-16T17:52:46.756Z,22.00
2022-11-16T17:55:49.020Z,21.80
2022-11-16T17:58:55.324Z,22.20
2022-11-16T18:01:58.236Z,22.40
2022-11-16T18:05:02.282Z,21.90
2022-11-16T18:08:05.571Z,21.50
2022-11-16T18:11:10.821Z,22.50
2022-11-16T18:14:13.186Z,21.50
2022-11-16T18:17:15.729Z,21.70
2022-11-16T18:20:18.263Z,21.50
2022-11-16T18:23:21.199Z,21.50
2022-11-16T18:26:24.392Z,21.60
2022-11-16T18:29:27.159Z,21.20
2022-11-16T18:32:30.588Z,21.90
2022-11-16T18:35:33.226Z,22.30
2022-11-16T18:38:38.847Z,22.90
2022-11-16T18:41:50.196Z,22.80
2022-11-16T18:44:55.696Z,22.60
2022-11-16T18:47:58.816Z,23.20
2022-11-16T18:51:03.149Z,23.20
2022-11-16T18:54:06.960Z,23.10
2022-11-16T18:57:09.665Z,23.20
2022-11-16T19:00:15.164Z,23.50
2022-11-16T19:03:17.913Z,22.90
2022-11-16T19:06:22.050Z,21.80
2022-11-16T19:09:24.614Z,21.70
2022-11-16T19:12:28.062Z,22.20
2022-11-16T19:15:30.699Z,21.50
2022-11-16T19:18:33.730Z,22.20
2022-11-16T19:21:36.304Z,22.70
2022-11-16T19:24:40.436Z,23.20
2022-11-16T19:27:42.963Z,22.20
2022-11-16T19:30:46.047Z,22.70
2022-11-16T19:33:52.936Z,22.60
2022-11-16T19:36:55.997Z,22.30
2022-11-16T19:39:58.440Z,22.10
2022-11-16T19:43:01.329Z,22.20
2022-11-16T19:46:24.486Z,22.60
2022-11-16T19:49:27.891Z,21.90
2022-11-16T19:52:30.456Z,22.30
2022-11-16T19:55:33.570Z,21.90
2022-11-16T19:58:38.337Z,22.70
2022-11-16T20:01:40.997Z,22.60
2022-11-16T20:04:44.521Z,21.20
2022-11-16T20:07:49.569Z,22.00
2022-11-16T20:10:53.173Z,22.40
2022-11-16T20:13:58.189Z,22.60
2022-11-16T20:17:00.410Z,22.40
2022-11-16T20:20:02.841Z,21.90
2022-11-16T20:23:04.834Z,22.20
2022-11-16T20:26:09.595Z,22.00
2022-11-16T20:29:12.997Z,22.70
2022-11-16T20:32:15.797Z,23.10
2022-11-16T20:35:19.227Z,22.60
2022-11-16T20:38:21.729Z,21.90
2022-11-16T20:41:27.179Z,22.70
2022-11-16T20:44:31.258Z,22.90
2022-11-16T20:47:36.019Z,22.80
2022-11-16T20:50:38.253Z,22.90
2022-11-16T20:53:40.316Z,22.80
2022-11-16T20:56:44.367Z,22.10
2022-11-16T20:59:46.473Z,22.40
2022-11-16T21:02:48.644Z,23.10
2022-11-16T21:05:52.244Z,22.70
2022-11-16T21:08:55.226Z,23.00
2022-11-16T21:12:15.694Z,23.30
2022-11-16T21:15:17.938Z,23.60
2022-11-16T21:18:19.860Z,23.20
2022-11-16T21:21:22.474Z,23.20
2022-11-16T21:24:24.781Z,23.70
2022-11-16T21:27:27.007Z,23.50
2022-11-16T21:30:28.902Z,23.40
2022-11-16T21:33:31.233Z,23.70
2022-11-16T21:36:33.910Z,23.50
2022-11-16T21:39:36.353Z,23.90
2022-11-16T21:42:38.602Z,23.90
2022-11-16T21:45:42.477Z,22.90
2022-11-16T21:48:44.928Z,22.50
2022-11-16T21:51:47.129Z,23.00
2022-11-16T21:54:50.963Z,23.20
2022-11-16T21:57:53.186Z,23.00
2022-11-16T22:00:59.133Z,21.90
2022-11-16T22:04:20.108Z,22.80
2022-11-16T22:07:33.985Z,23.40
2022-11-16T22:10:36.277Z,24.20
2022-11-16T22:13:39.585Z,24.50
2022-11-16T22:16:41.810Z,24.80
2022-11-16T22:19:43.769Z,24.00
2022-11-16T22:22:45.928Z,23.90
2022-11-16T22:25:49.147Z,24.10
2022-11-16T22:28:53.298Z,24.00
2022-11-16T22:31:55.487Z,24.30
2022-11-16T22:34:57.680Z,23.80
2022-11-16T22:37:59.724Z,24.20
2022-11-16T22:41:02.476Z,23.40
2022-11-16T22:44:04.512Z,24.00
2022-11-16T22:47:06.761Z,22.70
2022-11-16T22:50:08.977Z,22.80
2022-11-16T22:53:11.332Z,23.00
2022-11-16T22:56:14.129Z,23.90
2022-11-16T22:59:16.355Z,23.50
2022-11-16T23:02:18.324Z,24.10
2022-11-16T23:05:20.554Z,24.20
2022-11-16T23:08:24.908Z,24.80
2022-11-16T23:11:47.074Z,24.90
2022-11-16T23:15:07.511Z,24.30
2022-11-16T23:18:09.694Z,24.00
2022-11-16T23:21:30.403Z,24.10
2022-11-16T23:24:51.409Z,23.90
2022-11-16T23:28:08.154Z,23.60
2022-11-16T23:31:10.330Z,23.20
2022-11-16T23:34:12.233Z,23.00
2022-11-16T23:37:14.389Z,23.60
2022-11-16T23:40:16.736Z,23.70
2022-11-16T23:43:57.569Z,24.40
2022-11-16T23:46:59.486Z,23.80
2022-11-16T23:50:01.705Z,23.80
2022-11-16T23:53:04.793Z,23.40
2022-11-16T23:56:07.354Z,21.90
2022-11-16T23:59:09.288Z,22.80
